sensor_id;sensor_type;location;lat;lon;timestamp;P1;durP1;ratioP1;P2;durP2;ratioP2
2570;SDS011;1295;51.130;6.732;2022-10-16T00:02:21;69.80;;;36.90;;
2570;SDS011;1295;51.130;6.732;2022-10-16T00:04:48;67.17;;;37.17;;
2570;SDS011;1295;51.130;6.732;2022-10-16T00:07:14;69.37;;;39.47;;
2570;SDS011;1295;51.130;6.732;2022-10-16T00:09:39;68.50;;;34.97;;
2570;SDS011;1295;51.130;6.732;2022-10-16T00:12:05;66.47;;;36.83;;
2570;SDS011;1295;51.130;6.732;2022-10-16T00:14:30;67.30;;;37.30;;
2570;SDS011;1295;51.130;6.732;2022-10-16T00:16:56;73.70;;;43.73;;
2570;SDS011;1295;51.130;6.732;2022-10-16T00:19:22;66.40;;;39.20;;
2570;SDS011;1295;51.130;6.732;2022-10-16T00:21:47;71.27;;;43.17;;
2570;SDS011;1295;51.130;6.732;2022-10-16T00:24:13;70.60;;;40.47;;
2570;SDS011;1295;51.130;6.732;2022-10-16T00:26:39;70.97;;;47.70;;
2570;SDS011;1295;51.130;6.732;2022-10-16T00:29:09;73.10;;;38.90;;
2570;SDS011;1295;51.130;6.732;2022-10-16T00:31:35;69.07;;;42.43;;
2570;SDS011;1295;51.130;6.732;2022-10-16T00:34:00;71.03;;;48.20;;
2570;SDS011;1295;51.130;6.732;2022-10-16T00:36:26;73.37;;;53.83;;
2570;SDS011;1295;51.130;6.732;2022-10-16T00:38:52;78.87;;;50.87;;
2570;SDS011;1295;51.130;6.732;2022-10-16T00:41:18;68.57;;;40.43;;
2570;SDS011;1295;51.130;6.732;2022-10-16T00:43:45;68.53;;;46.43;;
2570;SDS011;1295;51.130;6.732;2022-10-16T00:46:13;68.67;;;43.07;;
2570;SDS011;1295;51.130;6.732;2022-10-16T00:48:36;69.10;;;45.33;;
2570;SDS011;1295;51.130;6.732;2022-10-16T00:51:01;71.70;;;47.30;;
2570;SDS011;1295;51.130;6.732;2022-10-16T00:53:27;67.70;;;36.70;;
2570;SDS011;1295;51.130;6.732;2022-10-16T00:55:53;67.53;;;38.23;;
2570;SDS011;1295;51.130;6.732;2022-10-16T00:58:18;64.97;;;37.67;;
2570;SDS011;1295;51.130;6.732;2022-10-16T01:00:44;58.77;;;19.00;;
2570;SDS011;1295;51.130;6.732;2022-10-16T01:03:44;61.10;;;5.50;;
2570;SDS011;1295;51.130;6.732;2022-10-16T01:05:57;54.70;;;7.00;;
2570;SDS011;1295;51.130;6.732;2022-10-16T01:08:23;54.10;;;5.23;;
2570;SDS011;1295;51.130;6.732;2022-10-16T01:13:32;54.40;;;6.80;;
2570;SDS011;1295;51.130;6.732;2022-10-16T01:16:00;54.30;;;6.23;;
2570;SDS011;1295;51.130;6.732;2022-10-16T01:18:30;57.47;;;6.23;;
2570;SDS011;1295;51.130;6.732;2022-10-16T01:20:54;55.30;;;6.27;;
2570;SDS011;1295;51.130;6.732;2022-10-16T01:23:28;58.10;;;7.23;;
2570;SDS011;1295;51.130;6.732;2022-10-16T01:25:59;56.80;;;6.57;;
2570;SDS011;1295;51.130;6.732;2022-10-16T01:28:27;55.03;;;8.40;;
2570;SDS011;1295;51.130;6.732;2022-10-16T01:30:50;57.90;;;8.73;;
2570;SDS011;1295;51.130;6.732;2022-10-16T01:33:19;59.70;;;8.10;;
2570;SDS011;1295;51.130;6.732;2022-10-16T01:35:43;55.10;;;9.53;;
2570;SDS011;1295;51.130;6.732;2022-10-16T01:38:16;58.47;;;8.30;;
2570;SDS011;1295;51.130;6.732;2022-10-16T01:40:45;56.17;;;8.07;;
2570;SDS011;1295;51.130;6.732;2022-10-16T01:43:12;56.67;;;8.73;;
2570;SDS011;1295;51.130;6.732;2022-10-16T01:45:35;54.30;;;7.50;;
2570;SDS011;1295;51.130;6.732;2022-10-16T01:48:01;54.70;;;7.47;;
2570;SDS011;1295;51.130;6.732;2022-10-16T01:50:27;55.30;;;7.80;;
2570;SDS011;1295;51.130;6.732;2022-10-16T01:52:52;57.50;;;8.10;;
2570;SDS011;1295;51.130;6.732;2022-10-16T01:55:20;55.17;;;6.67;;
2570;SDS011;1295;51.130;6.732;2022-10-16T01:57:45;55.30;;;7.77;;
2570;SDS011;1295;51.130;6.732;2022-10-16T02:00:10;56.13;;;7.17;;
2570;SDS011;1295;51.130;6.732;2022-10-16T02:02:36;55.27;;;8.17;;
2570;SDS011;1295;51.130;6.732;2022-10-16T02:05:05;56.20;;;8.30;;
2570;SDS011;1295;51.130;6.732;2022-10-16T02:07:30;54.57;;;7.57;;
2570;SDS011;1295;51.130;6.732;2022-10-16T02:09:56;54.83;;;7.40;;
2570;SDS011;1295;51.130;6.732;2022-10-16T02:12:25;54.90;;;7.20;;
2570;SDS011;1295;51.130;6.732;2022-10-16T02:14:51;56.00;;;7.10;;
2570;SDS011;1295;51.130;6.732;2022-10-16T02:17:17;54.60;;;6.93;;
2570;SDS011;1295;51.130;6.732;2022-10-16T02:19:42;56.73;;;6.63;;
2570;SDS011;1295;51.130;6.732;2022-10-16T02:22:08;54.90;;;8.53;;
2570;SDS011;1295;51.130;6.732;2022-10-16T02:24:38;57.40;;;6.53;;
2570;SDS011;1295;51.130;6.732;2022-10-16T02:27:09;54.97;;;7.03;;
2570;SDS011;1295;51.130;6.732;2022-10-16T02:29:32;57.53;;;7.43;;
2570;SDS011;1295;51.130;6.732;2022-10-16T02:31:59;54.97;;;6.80;;
2570;SDS011;1295;51.130;6.732;2022-10-16T02:34:23;56.37;;;6.43;;
2570;SDS011;1295;51.130;6.732;2022-10-16T02:36:49;54.90;;;7.20;;
2570;SDS011;1295;51.130;6.732;2022-10-16T02:39:15;54.60;;;6.83;;
2570;SDS011;1295;51.130;6.732;2022-10-16T02:41:40;53.80;;;7.00;;
2570;SDS011;1295;51.130;6.732;2022-10-16T02:44:06;56.30;;;8.07;;
2570;SDS011;1295;51.130;6.732;2022-10-16T02:46:31;55.30;;;7.23;;
2570;SDS011;1295;51.130;6.732;2022-10-16T02:48:57;56.13;;;8.13;;
2570;SDS011;1295;51.130;6.732;2022-10-16T02:51:23;56.80;;;6.97;;
2570;SDS011;1295;51.130;6.732;2022-10-16T02:53:48;56.10;;;7.70;;
2570;SDS011;1295;51.130;6.732;2022-10-16T02:56:14;55.00;;;8.07;;
2570;SDS011;1295;51.130;6.732;2022-10-16T02:58:39;54.53;;;7.10;;
2570;SDS011;1295;51.130;6.732;2022-10-16T03:01:05;54.40;;;7.23;;
2570;SDS011;1295;51.130;6.732;2022-10-16T03:03:31;58.03;;;8.00;;
2570;SDS011;1295;51.130;6.732;2022-10-16T03:05:56;55.90;;;6.93;;
2570;SDS011;1295;51.130;6.732;2022-10-16T03:08:22;54.27;;;7.03;;
2570;SDS011;1295;51.130;6.732;2022-10-16T03:10:48;55.60;;;7.03;;
2570;SDS011;1295;51.130;6.732;2022-10-16T03:13:13;55.50;;;7.43;;
2570;SDS011;1295;51.130;6.732;2022-10-16T03:15:39;55.63;;;9.13;;
2570;SDS011;1295;51.130;6.732;2022-10-16T03:18:05;55.23;;;7.80;;
2570;SDS011;1295;51.130;6.732;2022-10-16T03:20:31;54.90;;;5.57;;
2570;SDS011;1295;51.130;6.732;2022-10-16T03:22:56;56.37;;;8.83;;
2570;SDS011;1295;51.130;6.732;2022-10-16T03:25:22;56.30;;;7.60;;
2570;SDS011;1295;51.130;6.732;2022-10-16T03:27:48;56.20;;;6.03;;
2570;SDS011;1295;51.130;6.732;2022-10-16T03:30:14;59.47;;;6.33;;
2570;SDS011;1295;51.130;6.732;2022-10-16T03:32:39;55.07;;;4.67;;
2570;SDS011;1295;51.130;6.732;2022-10-16T03:35:06;69.87;;;6.47;;
2570;SDS011;1295;51.130;6.732;2022-10-16T03:37:33;54.80;;;6.20;;
2570;SDS011;1295;51.130;6.732;2022-10-16T03:39:58;55.00;;;6.17;;
2570;SDS011;1295;51.130;6.732;2022-10-16T03:42:24;55.07;;;7.83;;
2570;SDS011;1295;51.130;6.732;2022-10-16T03:44:50;54.30;;;5.93;;
2570;SDS011;1295;51.130;6.732;2022-10-16T03:47:15;55.00;;;6.03;;
2570;SDS011;1295;51.130;6.732;2022-10-16T03:49:41;56.80;;;6.40;;
2570;SDS011;1295;51.130;6.732;2022-10-16T03:52:06;54.97;;;4.80;;
2570;SDS011;1295;51.130;6.732;2022-10-16T03:54:32;54.60;;;5.73;;
2570;SDS011;1295;51.130;6.732;2022-10-16T03:56:58;56.67;;;4.30;;
2570;SDS011;1295;51.130;6.732;2022-10-16T03:59:24;57.93;;;4.40;;
2570;SDS011;1295;51.130;6.732;2022-10-16T04:01:50;55.10;;;6.80;;
2570;SDS011;1295;51.130;6.732;2022-10-16T04:04:16;57.30;;;6.57;;
2570;SDS011;1295;51.130;6.732;2022-10-16T04:06:42;54.60;;;4.60;;
2570;SDS011;1295;51.130;6.732;2022-10-16T04:09:08;57.43;;;5.50;;
2570;SDS011;1295;51.130;6.732;2022-10-16T04:11:33;55.67;;;6.50;;
2570;SDS011;1295;51.130;6.732;2022-10-16T04:13:59;54.57;;;6.10;;
2570;SDS011;1295;51.130;6.732;2022-10-16T04:16:26;56.20;;;4.93;;
2570;SDS011;1295;51.130;6.732;2022-10-16T04:18:51;55.00;;;4.73;;
2570;SDS011;1295;51.130;6.732;2022-10-16T04:21:17;54.57;;;4.37;;
2570;SDS011;1295;51.130;6.732;2022-10-16T04:23:43;55.83;;;6.40;;
2570;SDS011;1295;51.130;6.732;2022-10-16T04:26:08;56.60;;;8.87;;
2570;SDS011;1295;51.130;6.732;2022-10-16T04:28:34;57.30;;;5.83;;
2570;SDS011;1295;51.130;6.732;2022-10-16T04:31:00;56.40;;;7.10;;
2570;SDS011;1295;51.130;6.732;2022-10-16T04:33:25;56.43;;;7.23;;
2570;SDS011;1295;51.130;6.732;2022-10-16T04:35:56;55.80;;;8.33;;
2570;SDS011;1295;51.130;6.732;2022-10-16T04:38:21;56.00;;;7.67;;
2570;SDS011;1295;51.130;6.732;2022-10-16T04:40:47;57.17;;;6.50;;
2570;SDS011;1295;51.130;6.732;2022-10-16T04:43:12;56.10;;;6.67;;
2570;SDS011;1295;51.130;6.732;2022-10-16T04:45:38;57.30;;;6.57;;
2570;SDS011;1295;51.130;6.732;2022-10-16T04:48:04;57.40;;;7.70;;
2570;SDS011;1295;51.130;6.732;2022-10-16T04:50:29;58.90;;;7.13;;
2570;SDS011;1295;51.130;6.732;2022-10-16T04:52:55;59.30;;;6.53;;
2570;SDS011;1295;51.130;6.732;2022-10-16T04:55:21;56.70;;;6.77;;
2570;SDS011;1295;51.130;6.732;2022-10-16T04:57:46;55.90;;;9.13;;
2570;SDS011;1295;51.130;6.732;2022-10-16T05:00:12;57.33;;;8.57;;
2570;SDS011;1295;51.130;6.732;2022-10-16T05:02:38;56.73;;;8.50;;
2570;SDS011;1295;51.130;6.732;2022-10-16T05:05:04;56.87;;;8.13;;
2570;SDS011;1295;51.130;6.732;2022-10-16T05:07:30;55.77;;;6.30;;
2570;SDS011;1295;51.130;6.732;2022-10-16T05:09:56;55.10;;;6.50;;
2570;SDS011;1295;51.130;6.732;2022-10-16T05:12:22;54.03;;;5.27;;
2570;SDS011;1295;51.130;6.732;2022-10-16T05:14:47;55.37;;;7.47;;
2570;SDS011;1295;51.130;6.732;2022-10-16T05:17:13;55.10;;;8.47;;
2570;SDS011;1295;51.130;6.732;2022-10-16T05:19:38;55.30;;;7.70;;
2570;SDS011;1295;51.130;6.732;2022-10-16T05:22:04;54.60;;;6.43;;
2570;SDS011;1295;51.130;6.732;2022-10-16T05:24:30;57.27;;;6.60;;
2570;SDS011;1295;51.130;6.732;2022-10-16T05:26:55;55.20;;;10.30;;
2570;SDS011;1295;51.130;6.732;2022-10-16T05:29:21;55.57;;;10.00;;
2570;SDS011;1295;51.130;6.732;2022-10-16T05:31:49;56.97;;;12.10;;
2570;SDS011;1295;51.130;6.732;2022-10-16T05:34:12;57.30;;;13.60;;
2570;SDS011;1295;51.130;6.732;2022-10-16T05:36:38;57.13;;;8.73;;
2570;SDS011;1295;51.130;6.732;2022-10-16T05:39:03;56.97;;;11.60;;
2570;SDS011;1295;51.130;6.732;2022-10-16T05:41:29;57.20;;;11.80;;
2570;SDS011;1295;51.130;6.732;2022-10-16T05:43:55;54.60;;;9.40;;
2570;SDS011;1295;51.130;6.732;2022-10-16T05:46:21;57.17;;;12.30;;
2570;SDS011;1295;51.130;6.732;2022-10-16T05:48:47;59.63;;;8.73;;
2570;SDS011;1295;51.130;6.732;2022-10-16T05:51:13;56.60;;;11.87;;
2570;SDS011;1295;51.130;6.732;2022-10-16T05:53:39;62.43;;;10.97;;
2570;SDS011;1295;51.130;6.732;2022-10-16T05:56:05;57.87;;;16.43;;
2570;SDS011;1295;51.130;6.732;2022-10-16T05:58:32;57.67;;;13.47;;
2570;SDS011;1295;51.130;6.732;2022-10-16T06:00:58;56.87;;;15.87;;
2570;SDS011;1295;51.130;6.732;2022-10-16T06:03:23;56.40;;;13.33;;
2570;SDS011;1295;51.130;6.732;2022-10-16T06:05:49;55.87;;;12.20;;
2570;SDS011;1295;51.130;6.732;2022-10-16T06:08:15;58.10;;;19.70;;
2570;SDS011;1295;51.130;6.732;2022-10-16T06:10:41;56.57;;;16.57;;
2570;SDS011;1295;51.130;6.732;2022-10-16T06:13:06;60.03;;;16.87;;
2570;SDS011;1295;51.130;6.732;2022-10-16T06:15:32;58.30;;;17.90;;
2570;SDS011;1295;51.130;6.732;2022-10-16T06:17:58;58.30;;;18.30;;
2570;SDS011;1295;51.130;6.732;2022-10-16T06:20:23;59.47;;;19.87;;
2570;SDS011;1295;51.130;6.732;2022-10-16T06:22:49;60.73;;;20.10;;
2570;SDS011;1295;51.130;6.732;2022-10-16T06:25:15;57.90;;;19.20;;
2570;SDS011;1295;51.130;6.732;2022-10-16T06:27:41;60.93;;;20.90;;
2570;SDS011;1295;51.130;6.732;2022-10-16T06:30:08;56.43;;;15.57;;
2570;SDS011;1295;51.130;6.732;2022-10-16T06:32:35;59.27;;;16.43;;
2570;SDS011;1295;51.130;6.732;2022-10-16T06:35:00;57.90;;;19.17;;
2570;SDS011;1295;51.130;6.732;2022-10-16T06:37:27;58.47;;;18.77;;
2570;SDS011;1295;51.130;6.732;2022-10-16T06:39:52;56.57;;;14.60;;
2570;SDS011;1295;51.130;6.732;2022-10-16T06:42:18;60.40;;;16.87;;
2570;SDS011;1295;51.130;6.732;2022-10-16T06:44:44;58.93;;;11.13;;
2570;SDS011;1295;51.130;6.732;2022-10-16T06:47:09;54.90;;;13.17;;
2570;SDS011;1295;51.130;6.732;2022-10-16T06:49:35;55.57;;;14.67;;
2570;SDS011;1295;51.130;6.732;2022-10-16T06:52:00;56.50;;;17.03;;
2570;SDS011;1295;51.130;6.732;2022-10-16T06:54:26;58.77;;;18.87;;
2570;SDS011;1295;51.130;6.732;2022-10-16T06:56:52;57.40;;;17.53;;
2570;SDS011;1295;51.130;6.732;2022-10-16T06:59:17;56.07;;;17.77;;
2570;SDS011;1295;51.130;6.732;2022-10-16T07:01:43;57.00;;;13.23;;
2570;SDS011;1295;51.130;6.732;2022-10-16T07:04:09;56.00;;;14.40;;
2570;SDS011;1295;51.130;6.732;2022-10-16T07:06:34;58.83;;;16.50;;
2570;SDS011;1295;51.130;6.732;2022-10-16T07:09:02;56.40;;;14.77;;
2570;SDS011;1295;51.130;6.732;2022-10-16T07:11:26;58.00;;;12.90;;
2570;SDS011;1295;51.130;6.732;2022-10-16T07:13:52;60.30;;;17.37;;
2570;SDS011;1295;51.130;6.732;2022-10-16T07:16:19;57.50;;;15.63;;
2570;SDS011;1295;51.130;6.732;2022-10-16T07:18:44;56.90;;;16.43;;
2570;SDS011;1295;51.130;6.732;2022-10-16T07:21:11;58.63;;;16.07;;
2570;SDS011;1295;51.130;6.732;2022-10-16T07:23:36;57.23;;;15.60;;
2570;SDS011;1295;51.130;6.732;2022-10-16T07:26:02;56.30;;;14.70;;
2570;SDS011;1295;51.130;6.732;2022-10-16T07:28:28;55.70;;;16.70;;
2570;SDS011;1295;51.130;6.732;2022-10-16T07:30:53;57.00;;;14.27;;
2570;SDS011;1295;51.130;6.732;2022-10-16T07:33:19;55.90;;;15.23;;
2570;SDS011;1295;51.130;6.732;2022-10-16T07:35:51;61.07;;;19.13;;
2570;SDS011;1295;51.130;6.732;2022-10-16T07:38:16;55.77;;;15.13;;
2570;SDS011;1295;51.130;6.732;2022-10-16T07:40:41;59.17;;;12.77;;
2570;SDS011;1295;51.130;6.732;2022-10-16T07:43:07;56.93;;;10.10;;
2570;SDS011;1295;51.130;6.732;2022-10-16T07:45:33;56.60;;;15.37;;
2570;SDS011;1295;51.130;6.732;2022-10-16T07:47:58;58.00;;;9.27;;
2570;SDS011;1295;51.130;6.732;2022-10-16T07:50:24;53.60;;;10.70;;
2570;SDS011;1295;51.130;6.732;2022-10-16T07:52:50;54.53;;;7.97;;
2570;SDS011;1295;51.130;6.732;2022-10-16T07:55:16;54.80;;;10.67;;
2570;SDS011;1295;51.130;6.732;2022-10-16T07:57:42;52.30;;;8.40;;
2570;SDS011;1295;51.130;6.732;2022-10-16T08:00:08;56.80;;;8.67;;
2570;SDS011;1295;51.130;6.732;2022-10-16T08:02:34;54.80;;;8.20;;
2570;SDS011;1295;51.130;6.732;2022-10-16T08:05:00;53.00;;;10.50;;
2570;SDS011;1295;51.130;6.732;2022-10-16T08:07:27;55.60;;;8.77;;
2570;SDS011;1295;51.130;6.732;2022-10-16T08:09:52;57.40;;;8.23;;
2570;SDS011;1295;51.130;6.732;2022-10-16T08:12:18;54.37;;;10.80;;
2570;SDS011;1295;51.130;6.732;2022-10-16T08:14:44;55.10;;;11.50;;
2570;SDS011;1295;51.130;6.732;2022-10-16T08:17:09;55.30;;;10.77;;
2570;SDS011;1295;51.130;6.732;2022-10-16T08:19:35;56.63;;;16.50;;
2570;SDS011;1295;51.130;6.732;2022-10-16T08:22:00;55.27;;;10.40;;
2570;SDS011;1295;51.130;6.732;2022-10-16T08:24:26;55.33;;;10.67;;
2570;SDS011;1295;51.130;6.732;2022-10-16T08:26:53;56.53;;;17.70;;
2570;SDS011;1295;51.130;6.732;2022-10-16T08:29:18;55.60;;;14.37;;
2570;SDS011;1295;51.130;6.732;2022-10-16T08:31:44;59.37;;;15.83;;
2570;SDS011;1295;51.130;6.732;2022-10-16T08:34:09;56.27;;;17.60;;
2570;SDS011;1295;51.130;6.732;2022-10-16T08:36:35;57.80;;;24.53;;
2570;SDS011;1295;51.130;6.732;2022-10-16T08:39:01;57.17;;;22.97;;
2570;SDS011;1295;51.130;6.732;2022-10-16T08:41:34;56.83;;;15.57;;
2570;SDS011;1295;51.130;6.732;2022-10-16T08:44:03;56.53;;;18.03;;
2570;SDS011;1295;51.130;6.732;2022-10-16T08:46:32;56.83;;;12.37;;
2570;SDS011;1295;51.130;6.732;2022-10-16T08:48:57;62.43;;;11.40;;
2570;SDS011;1295;51.130;6.732;2022-10-16T08:51:23;58.30;;;15.57;;
2570;SDS011;1295;51.130;6.732;2022-10-16T08:53:50;56.70;;;9.83;;
2570;SDS011;1295;51.130;6.732;2022-10-16T08:56:23;95.57;;;85.70;;
2570;SDS011;1295;51.130;6.732;2022-10-16T08:58:49;55.17;;;8.87;;
2570;SDS011;1295;51.130;6.732;2022-10-16T09:01:15;57.80;;;13.30;;
2570;SDS011;1295;51.130;6.732;2022-10-16T09:03:45;57.77;;;9.03;;
2570;SDS011;1295;51.130;6.732;2022-10-16T09:06:26;54.80;;;9.77;;
2570;SDS011;1295;51.130;6.732;2022-10-16T09:09:04;58.90;;;9.83;;
2570;SDS011;1295;51.130;6.732;2022-10-16T09:15:14;70.87;;;17.03;;
2570;SDS011;1295;51.130;6.732;2022-10-16T09:17:11;55.90;;;7.53;;
2570;SDS011;1295;51.130;6.732;2022-10-16T09:19:46;62.17;;;17.30;;
2570;SDS011;1295;51.130;6.732;2022-10-16T09:22:12;65.67;;;26.17;;
2570;SDS011;1295;51.130;6.732;2022-10-16T09:24:36;59.07;;;14.67;;
2570;SDS011;1295;51.130;6.732;2022-10-16T09:27:02;60.87;;;15.17;;
2570;SDS011;1295;51.130;6.732;2022-10-16T09:29:28;69.77;;;40.27;;
2570;SDS011;1295;51.130;6.732;2022-10-16T09:31:53;62.20;;;14.17;;
2570;SDS011;1295;51.130;6.732;2022-10-16T09:34:26;61.30;;;13.23;;
2570;SDS011;1295;51.130;6.732;2022-10-16T09:36:50;55.97;;;10.47;;
2570;SDS011;1295;51.130;6.732;2022-10-16T09:39:15;55.70;;;6.70;;
2570;SDS011;1295;51.130;6.732;2022-10-16T09:41:42;68.70;;;10.43;;
2570;SDS011;1295;51.130;6.732;2022-10-16T09:44:28;62.33;;;18.13;;
2570;SDS011;1295;51.130;6.732;2022-10-16T09:49:26;72.73;;;36.57;;
2570;SDS011;1295;51.130;6.732;2022-10-16T09:51:51;64.23;;;18.50;;
2570;SDS011;1295;51.130;6.732;2022-10-16T09:54:18;95.77;;;84.37;;
2570;SDS011;1295;51.130;6.732;2022-10-16T09:56:43;77.43;;;50.20;;
2570;SDS011;1295;51.130;6.732;2022-10-16T09:59:11;81.30;;;68.20;;
2570;SDS011;1295;51.130;6.732;2022-10-16T10:01:36;57.10;;;12.00;;
2570;SDS011;1295;51.130;6.732;2022-10-16T10:04:01;81.93;;;63.20;;
2570;SDS011;1295;51.130;6.732;2022-10-16T10:06:29;66.97;;;35.67;;
2570;SDS011;1295;51.130;6.732;2022-10-16T10:08:56;74.50;;;50.90;;
2570;SDS011;1295;51.130;6.732;2022-10-16T10:14:04;188.23;;;175.33;;
2570;SDS011;1295;51.130;6.732;2022-10-16T10:16:28;186.77;;;173.83;;
2570;SDS011;1295;51.130;6.732;2022-10-16T10:18:58;88.77;;;79.50;;
2570;SDS011;1295;51.130;6.732;2022-10-16T10:21:23;116.90;;;106.70;;
2570;SDS011;1295;51.130;6.732;2022-10-16T10:23:54;167.63;;;155.87;;
2570;SDS011;1295;51.130;6.732;2022-10-16T10:26:16;106.03;;;96.23;;
2570;SDS011;1295;51.130;6.732;2022-10-16T10:28:45;122.57;;;112.20;;
2570;SDS011;1295;51.130;6.732;2022-10-16T10:31:47;118.90;;;108.67;;
2570;SDS011;1295;51.130;6.732;2022-10-16T10:34:21;98.03;;;88.40;;
2570;SDS011;1295;51.130;6.732;2022-10-16T10:36:46;110.63;;;100.93;;
2570;SDS011;1295;51.130;6.732;2022-10-16T10:44:35;113.37;;;102.70;;
2570;SDS011;1295;51.130;6.732;2022-10-16T10:47:19;105.37;;;95.20;;
2570;SDS011;1295;51.130;6.732;2022-10-16T10:49:49;124.27;;;114.07;;
2570;SDS011;1295;51.130;6.732;2022-10-16T10:52:23;71.73;;;46.07;;
2570;SDS011;1295;51.130;6.732;2022-10-16T10:55:03;111.07;;;101.33;;
2570;SDS011;1295;51.130;6.732;2022-10-16T10:57:35;243.53;;;228.93;;
2570;SDS011;1295;51.130;6.732;2022-10-16T11:00:06;174.67;;;161.83;;
2570;SDS011;1295;51.130;6.732;2022-10-16T11:02:48;108.83;;;98.03;;
2570;SDS011;1295;51.130;6.732;2022-10-16T11:05:17;77.87;;;45.43;;
2570;SDS011;1295;51.130;6.732;2022-10-16T11:07:48;71.80;;;46.87;;
2570;SDS011;1295;51.130;6.732;2022-10-16T11:10:16;87.20;;;78.27;;
2570;SDS011;1295;51.130;6.732;2022-10-16T11:12:44;174.20;;;161.60;;
2570;SDS011;1295;51.130;6.732;2022-10-16T11:15:15;152.33;;;141.03;;
2570;SDS011;1295;51.130;6.732;2022-10-16T11:17:42;138.23;;;127.10;;
2570;SDS011;1295;51.130;6.732;2022-10-16T11:22:44;131.97;;;121.33;;
2570;SDS011;1295;51.130;6.732;2022-10-16T11:27:44;131.37;;;120.30;;
2570;SDS011;1295;51.130;6.732;2022-10-16T11:30:15;142.13;;;130.50;;
2570;SDS011;1295;51.130;6.732;2022-10-16T11:32:45;147.53;;;136.33;;
2570;SDS011;1295;51.130;6.732;2022-10-16T11:35:13;149.30;;;137.83;;
2570;SDS011;1295;51.130;6.732;2022-10-16T11:37:38;168.67;;;155.50;;
2570;SDS011;1295;51.130;6.732;2022-10-16T11:40:05;139.60;;;128.07;;
2570;SDS011;1295;51.130;6.732;2022-10-16T11:42:31;145.33;;;134.03;;
2570;SDS011;1295;51.130;6.732;2022-10-16T11:44:59;186.63;;;174.13;;
2570;SDS011;1295;51.130;6.732;2022-10-16T11:47:26;163.53;;;151.47;;
2570;SDS011;1295;51.130;6.732;2022-10-16T11:49:59;180.67;;;167.67;;
2570;SDS011;1295;51.130;6.732;2022-10-16T11:52:28;189.53;;;176.10;;
2570;SDS011;1295;51.130;6.732;2022-10-16T11:54:55;169.90;;;157.33;;
2570;SDS011;1295;51.130;6.732;2022-10-16T11:57:21;124.57;;;112.83;;
2570;SDS011;1295;51.130;6.732;2022-10-16T12:00:05;175.27;;;162.80;;
2570;SDS011;1295;51.130;6.732;2022-10-16T12:02:35;171.63;;;158.80;;
2570;SDS011;1295;51.130;6.732;2022-10-16T12:05:13;221.53;;;207.93;;
2570;SDS011;1295;51.130;6.732;2022-10-16T12:07:39;245.30;;;229.47;;
2570;SDS011;1295;51.130;6.732;2022-10-16T12:10:17;148.13;;;136.57;;
2570;SDS011;1295;51.130;6.732;2022-10-16T12:12:42;121.57;;;110.57;;
2570;SDS011;1295;51.130;6.732;2022-10-16T12:18:00;78.27;;;48.77;;
2570;SDS011;1295;51.130;6.732;2022-10-16T12:20:28;76.30;;;54.63;;
2570;SDS011;1295;51.130;6.732;2022-10-16T12:22:57;221.97;;;207.27;;
2570;SDS011;1295;51.130;6.732;2022-10-16T12:25:27;229.17;;;214.90;;
2570;SDS011;1295;51.130;6.732;2022-10-16T12:28:02;181.03;;;167.33;;
2570;SDS011;1295;51.130;6.732;2022-10-16T12:30:29;58.20;;;10.30;;
2570;SDS011;1295;51.130;6.732;2022-10-16T12:32:55;84.57;;;65.17;;
2570;SDS011;1295;51.130;6.732;2022-10-16T12:35:21;59.00;;;13.07;;
2570;SDS011;1295;51.130;6.732;2022-10-16T12:37:46;59.73;;;14.73;;
2570;SDS011;1295;51.130;6.732;2022-10-16T12:40:13;69.10;;;30.70;;
2570;SDS011;1295;51.130;6.732;2022-10-16T12:42:39;67.47;;;18.13;;
2570;SDS011;1295;51.130;6.732;2022-10-16T12:47:47;65.57;;;20.73;;
2570;SDS011;1295;51.130;6.732;2022-10-16T12:50:22;64.40;;;12.10;;
2570;SDS011;1295;51.130;6.732;2022-10-16T12:52:36;68.50;;;26.47;;
2570;SDS011;1295;51.130;6.732;2022-10-16T12:55:01;59.73;;;14.70;;
2570;SDS011;1295;51.130;6.732;2022-10-16T13:00:04;59.47;;;10.67;;
2570;SDS011;1295;51.130;6.732;2022-10-16T13:09:07;127.63;;;116.57;;
2570;SDS011;1295;51.130;6.732;2022-10-16T13:11:41;61.83;;;14.50;;
2570;SDS011;1295;51.130;6.732;2022-10-16T13:14:57;63.40;;;20.03;;
2570;SDS011;1295;51.130;6.732;2022-10-16T13:17:48;78.90;;;61.77;;
2570;SDS011;1295;51.130;6.732;2022-10-16T13:19:28;70.63;;;13.43;;
2570;SDS011;1295;51.130;6.732;2022-10-16T13:24:52;59.60;;;11.73;;
2570;SDS011;1295;51.130;6.732;2022-10-16T13:27:42;63.80;;;15.00;;
2570;SDS011;1295;51.130;6.732;2022-10-16T13:32:39;79.03;;;57.43;;
2570;SDS011;1295;51.130;6.732;2022-10-16T13:35:15;155.00;;;143.30;;
2570;SDS011;1295;51.130;6.732;2022-10-16T13:37:31;85.77;;;72.70;;
2570;SDS011;1295;51.130;6.732;2022-10-16T13:40:02;219.13;;;204.80;;
2570;SDS011;1295;51.130;6.732;2022-10-16T13:42:27;246.97;;;231.93;;
2570;SDS011;1295;51.130;6.732;2022-10-16T13:44:53;297.37;;;280.23;;
2570;SDS011;1295;51.130;6.732;2022-10-16T13:47:20;233.97;;;219.13;;
2570;SDS011;1295;51.130;6.732;2022-10-16T13:49:44;254.87;;;239.50;;
2570;SDS011;1295;51.130;6.732;2022-10-16T13:52:15;154.47;;;142.70;;
2570;SDS011;1295;51.130;6.732;2022-10-16T13:54:40;237.70;;;222.90;;
2570;SDS011;1295;51.130;6.732;2022-10-16T13:57:05;259.33;;;243.87;;
2570;SDS011;1295;51.130;6.732;2022-10-16T13:59:33;138.47;;;127.17;;
2570;SDS011;1295;51.130;6.732;2022-10-16T14:01:58;131.93;;;120.77;;
2570;SDS011;1295;51.130;6.732;2022-10-16T14:04:24;100.83;;;88.40;;
2570;SDS011;1295;51.130;6.732;2022-10-16T14:06:51;136.50;;;125.27;;
2570;SDS011;1295;51.130;6.732;2022-10-16T14:09:22;66.40;;;25.40;;
2570;SDS011;1295;51.130;6.732;2022-10-16T14:11:48;80.20;;;59.60;;
2570;SDS011;1295;51.130;6.732;2022-10-16T14:14:11;153.40;;;141.53;;
2570;SDS011;1295;51.130;6.732;2022-10-16T14:16:37;112.07;;;101.53;;
2570;SDS011;1295;51.130;6.732;2022-10-16T14:19:03;193.67;;;179.87;;
2570;SDS011;1295;51.130;6.732;2022-10-16T14:21:29;196.67;;;183.37;;
2570;SDS011;1295;51.130;6.732;2022-10-16T14:23:55;233.70;;;218.83;;
2570;SDS011;1295;51.130;6.732;2022-10-16T14:26:21;147.70;;;135.17;;
2570;SDS011;1295;51.130;6.732;2022-10-16T14:28:46;183.30;;;170.43;;
2570;SDS011;1295;51.130;6.732;2022-10-16T14:33:47;210.47;;;196.87;;
2570;SDS011;1295;51.130;6.732;2022-10-16T14:36:13;181.57;;;168.60;;
2570;SDS011;1295;51.130;6.732;2022-10-16T14:38:41;184.53;;;171.07;;
2570;SDS011;1295;51.130;6.732;2022-10-16T14:41:07;155.33;;;143.33;;
2570;SDS011;1295;51.130;6.732;2022-10-16T14:43:35;109.73;;;98.97;;
2570;SDS011;1295;51.130;6.732;2022-10-16T14:46:00;104.83;;;94.23;;
2570;SDS011;1295;51.130;6.732;2022-10-16T14:48:25;108.20;;;97.87;;
2570;SDS011;1295;51.130;6.732;2022-10-16T14:50:51;107.50;;;97.10;;
2570;SDS011;1295;51.130;6.732;2022-10-16T14:53:17;94.87;;;84.33;;
2570;SDS011;1295;51.130;6.732;2022-10-16T14:55:42;108.67;;;98.10;;
2570;SDS011;1295;51.130;6.732;2022-10-16T14:58:19;80.10;;;56.60;;
2570;SDS011;1295;51.130;6.732;2022-10-16T15:00:45;78.37;;;52.27;;
2570;SDS011;1295;51.130;6.732;2022-10-16T15:03:11;67.03;;;21.00;;
2570;SDS011;1295;51.130;6.732;2022-10-16T15:05:37;68.07;;;19.50;;
2570;SDS011;1295;51.130;6.732;2022-10-16T15:08:03;68.33;;;26.63;;
2570;SDS011;1295;51.130;6.732;2022-10-16T15:10:29;70.40;;;23.60;;
2570;SDS011;1295;51.130;6.732;2022-10-16T15:12:55;72.70;;;31.97;;
2570;SDS011;1295;51.130;6.732;2022-10-16T15:15:32;70.67;;;29.13;;
2570;SDS011;1295;51.130;6.732;2022-10-16T15:17:58;77.07;;;45.67;;
2570;SDS011;1295;51.130;6.732;2022-10-16T15:20:24;63.63;;;18.60;;
2570;SDS011;1295;51.130;6.732;2022-10-16T15:22:49;63.30;;;19.30;;
2570;SDS011;1295;51.130;6.732;2022-10-16T15:25:25;63.13;;;20.20;;
2570;SDS011;1295;51.130;6.732;2022-10-16T15:27:48;62.70;;;19.93;;
2570;SDS011;1295;51.130;6.732;2022-10-16T15:30:14;62.67;;;14.00;;
2570;SDS011;1295;51.130;6.732;2022-10-16T15:32:40;64.60;;;22.10;;